AAL2 OOMS-VAAH
Flight info
| Callsign | AAL2 |
|---|---|
| Flight time | N/A |
| Altitude | 35000 |
| Route | SODEB G216 ALPOR M504 TELEM G210 VASLA VASLA1A |
| Aircraft | A320/M-SDE3FGHIRWY/LB1 |
Departure
| Time | N/A |
|---|---|
| Airport | Muscat International Airport (OOMS) |
Arrival
| Time | 2026-04-23 13:17 |
|---|---|
| Airport | Sardar Vallabh Patel International Airport (VAAH) |
| Time | Latitude | Longitude | Altitude | Speed | Heading |
|---|---|---|---|---|---|
| 2026-04-23 11:31 | 23.84836 | 59.83313 | 26809 ft | 464 kts | 79° |
| 2026-04-23 11:31 | 23.85390 | 59.86794 | 27111 ft | 466 kts | 79° |
| 2026-04-23 11:31 | 23.85943 | 59.90286 | 27403 ft | 468 kts | 79° |
| 2026-04-23 11:32 | 23.86495 | 59.93796 | 27699 ft | 470 kts | 79° |
| 2026-04-23 11:32 | 23.87048 | 59.97320 | 27984 ft | 471 kts | 79° |
| 2026-04-23 11:32 | 23.87602 | 60.00858 | 28263 ft | 473 kts | 79° |
| 2026-04-23 11:32 | 23.88158 | 60.04409 | 28523 ft | 475 kts | 79° |
| 2026-04-23 11:33 | 23.88717 | 60.07973 | 28784 ft | 477 kts | 79° |
| 2026-04-23 11:33 | 23.89277 | 60.11550 | 29038 ft | 478 kts | 79° |
| 2026-04-23 11:33 | 23.89843 | 60.15138 | 29284 ft | 480 kts | 78° |
| 2026-04-23 11:33 | 23.90408 | 60.18734 | 29524 ft | 482 kts | 78° |
| 2026-04-23 11:34 | 23.90970 | 60.22353 | 29739 ft | 483 kts | 78° |
| 2026-04-23 11:34 | 23.91531 | 60.25980 | 29958 ft | 485 kts | 78° |
| 2026-04-23 11:34 | 23.92091 | 60.29623 | 30147 ft | 486 kts | 78° |
| 2026-04-23 11:34 | 23.92649 | 60.33258 | 30408 ft | 485 kts | 78° |
| 2026-04-23 11:35 | 23.93212 | 60.36899 | 30654 ft | 485 kts | 78° |
| 2026-04-23 11:35 | 23.93774 | 60.40532 | 30891 ft | 485 kts | 78° |
| 2026-04-23 11:35 | 23.94338 | 60.44171 | 31123 ft | 485 kts | 78° |
| 2026-04-23 11:35 | 23.94900 | 60.47810 | 31367 ft | 486 kts | 78° |
| 2026-04-23 11:36 | 23.95460 | 60.51443 | 31641 ft | 485 kts | 78° |
| 2026-04-23 11:36 | 23.96021 | 60.55076 | 31895 ft | 484 kts | 77° |
| 2026-04-23 11:36 | 23.96579 | 60.58707 | 32146 ft | 484 kts | 77° |
| 2026-04-23 11:36 | 23.97134 | 60.62342 | 32390 ft | 484 kts | 77° |
| 2026-04-23 11:37 | 23.97687 | 60.65973 | 32631 ft | 484 kts | 77° |
| 2026-04-23 11:37 | 23.98239 | 60.69604 | 32876 ft | 484 kts | 77° |
| 2026-04-23 11:37 | 23.98780 | 60.73183 | 33115 ft | 484 kts | 77° |
| 2026-04-23 11:37 | 23.99335 | 60.76863 | 33364 ft | 483 kts | 77° |
| 2026-04-23 11:38 | 23.99884 | 60.80479 | 33661 ft | 482 kts | 77° |
| 2026-04-23 11:38 | 24.00427 | 60.84042 | 33917 ft | 481 kts | 77° |
| 2026-04-23 11:38 | 24.00976 | 60.87649 | 34122 ft | 481 kts | 77° |
| 2026-04-23 11:38 | 24.01523 | 60.91258 | 34309 ft | 481 kts | 77° |
| 2026-04-23 11:39 | 24.02067 | 60.94870 | 34491 ft | 481 kts | 77° |
| 2026-04-23 11:39 | 24.02609 | 60.98485 | 34671 ft | 482 kts | 77° |
| 2026-04-23 11:39 | 24.03154 | 61.02104 | 34781 ft | 482 kts | 77° |
| 2026-04-23 11:40 | 24.04236 | 61.09340 | 34805 ft | 481 kts | 76° |
| 2026-04-23 11:40 | 24.05308 | 61.16546 | 34806 ft | 479 kts | 76° |
| 2026-04-23 11:41 | 24.06387 | 61.23751 | 34801 ft | 479 kts | 76° |
| 2026-04-23 11:41 | 24.07455 | 61.30946 | 34809 ft | 480 kts | 78° |
| 2026-04-23 11:42 | 24.07505 | 61.38291 | 34813 ft | 486 kts | 90° |
| 2026-04-23 11:42 | 24.07058 | 61.45666 | 34822 ft | 485 kts | 90° |
| 2026-04-23 11:43 | 24.06636 | 61.53040 | 34822 ft | 485 kts | 90° |
| 2026-04-23 11:43 | 24.06206 | 61.60403 | 34818 ft | 485 kts | 90° |
| 2026-04-23 11:44 | 24.05758 | 61.67762 | 34817 ft | 485 kts | 90° |
| 2026-04-23 11:44 | 24.05307 | 61.75119 | 34826 ft | 485 kts | 90° |
| 2026-04-23 11:45 | 24.04853 | 61.82481 | 34813 ft | 485 kts | 90° |
| 2026-04-23 11:45 | 24.04394 | 61.89842 | 34813 ft | 485 kts | 90° |
| 2026-04-23 11:46 | 24.03938 | 61.97200 | 34824 ft | 484 kts | 90° |
| 2026-04-23 11:46 | 24.03487 | 62.04545 | 34829 ft | 483 kts | 90° |
| 2026-04-23 11:47 | 24.03024 | 62.11828 | 34827 ft | 483 kts | 90° |
| 2026-04-23 11:47 | 24.02547 | 62.19153 | 34830 ft | 483 kts | 90° |
| 2026-04-23 11:48 | 24.02074 | 62.26479 | 34833 ft | 482 kts | 90° |
| 2026-04-23 11:48 | 24.01604 | 62.33783 | 34835 ft | 481 kts | 91° |
| 2026-04-23 11:49 | 24.01130 | 62.41081 | 34831 ft | 481 kts | 91° |
| 2026-04-23 11:49 | 24.00653 | 62.48371 | 34829 ft | 480 kts | 91° |
| 2026-04-23 11:50 | 24.00168 | 62.55659 | 34836 ft | 480 kts | 91° |
| 2026-04-23 11:50 | 23.99683 | 62.62932 | 34836 ft | 480 kts | 91° |
| 2026-04-23 11:51 | 23.99193 | 62.70204 | 34828 ft | 479 kts | 91° |
| 2026-04-23 11:51 | 23.98700 | 62.77472 | 34826 ft | 479 kts | 91° |
| 2026-04-23 11:52 | 23.98206 | 62.84733 | 34815 ft | 479 kts | 91° |
| 2026-04-23 11:52 | 23.97705 | 62.91981 | 34820 ft | 478 kts | 91° |
| 2026-04-23 11:53 | 23.97203 | 62.99229 | 34828 ft | 478 kts | 91° |
| 2026-04-23 11:53 | 23.96708 | 63.06416 | 34822 ft | 477 kts | 91° |
| 2026-04-23 11:54 | 23.96200 | 63.13646 | 34824 ft | 477 kts | 91° |
| 2026-04-23 11:54 | 23.95685 | 63.20868 | 34825 ft | 476 kts | 91° |
| 2026-04-23 11:55 | 23.95173 | 63.28076 | 34815 ft | 476 kts | 91° |
| 2026-04-23 11:55 | 23.94661 | 63.35283 | 34812 ft | 475 kts | 91° |
| 2026-04-23 11:56 | 23.94150 | 63.42487 | 34809 ft | 475 kts | 91° |
| 2026-04-23 11:56 | 23.93635 | 63.49688 | 34820 ft | 475 kts | 91° |
| 2026-04-23 11:57 | 23.93107 | 63.56885 | 34811 ft | 475 kts | 91° |
| 2026-04-23 11:57 | 23.92570 | 63.64085 | 34811 ft | 475 kts | 91° |
| 2026-04-23 11:58 | 23.92032 | 63.71278 | 34823 ft | 475 kts | 91° |
| 2026-04-23 11:58 | 23.91491 | 63.78555 | 34806 ft | 484 kts | 91° |
| 2026-04-23 11:59 | 23.90944 | 63.85930 | 34803 ft | 488 kts | 91° |
| 2026-04-23 11:59 | 23.90395 | 63.93276 | 34805 ft | 488 kts | 91° |
| 2026-04-23 12:00 | 23.89843 | 64.00661 | 34812 ft | 488 kts | 91° |
| 2026-04-23 12:00 | 23.89287 | 64.08067 | 34821 ft | 489 kts | 90° |
| 2026-04-23 12:01 | 23.88713 | 64.15465 | 34819 ft | 489 kts | 90° |
| 2026-04-23 12:01 | 23.88131 | 64.22867 | 34826 ft | 489 kts | 90° |
| 2026-04-23 12:02 | 23.87558 | 64.30268 | 34817 ft | 489 kts | 90° |
| 2026-04-23 12:02 | 23.86979 | 64.37672 | 34836 ft | 488 kts | 91° |
| 2026-04-23 12:03 | 23.86402 | 64.45041 | 34849 ft | 486 kts | 91° |
| 2026-04-23 12:03 | 23.85825 | 64.52383 | 34841 ft | 484 kts | 91° |
| 2026-04-23 12:04 | 23.85244 | 64.59702 | 34830 ft | 483 kts | 91° |
| 2026-04-23 12:04 | 23.84658 | 64.67008 | 34829 ft | 483 kts | 91° |
| 2026-04-23 12:05 | 23.84068 | 64.74309 | 34830 ft | 482 kts | 91° |
| 2026-04-23 12:05 | 23.83471 | 64.81598 | 34827 ft | 482 kts | 91° |
| 2026-04-23 12:06 | 23.83360 | 64.88879 | 34825 ft | 478 kts | 85° |
| 2026-04-23 12:06 | 23.83443 | 64.99725 | 34830 ft | 478 kts | 86° |
| 2026-04-23 12:07 | 23.83484 | 65.06971 | 34834 ft | 477 kts | 86° |
| 2026-04-23 12:07 | 23.83524 | 65.14221 | 34826 ft | 477 kts | 86° |
| 2026-04-23 12:08 | 23.83557 | 65.21459 | 34817 ft | 476 kts | 85° |
| 2026-04-23 12:08 | 23.83591 | 65.28705 | 34821 ft | 477 kts | 85° |
| 2026-04-23 12:09 | 23.83617 | 65.35936 | 34832 ft | 476 kts | 86° |
| 2026-04-23 12:09 | 23.83636 | 65.43169 | 34831 ft | 476 kts | 86° |
| 2026-04-23 12:10 | 23.83655 | 65.50392 | 34836 ft | 475 kts | 86° |
| 2026-04-23 12:10 | 23.83679 | 65.57610 | 34830 ft | 475 kts | 86° |
| 2026-04-23 12:11 | 23.83687 | 65.64820 | 34831 ft | 474 kts | 86° |
| 2026-04-23 12:11 | 23.83688 | 65.71970 | 34829 ft | 474 kts | 86° |
| 2026-04-23 12:12 | 23.83700 | 65.79161 | 34827 ft | 473 kts | 86° |
| 2026-04-23 12:12 | 23.83714 | 65.86355 | 34826 ft | 473 kts | 86° |
| 2026-04-23 12:13 | 23.83714 | 65.93531 | 34832 ft | 473 kts | 86° |
| 2026-04-23 12:13 | 23.83707 | 66.00706 | 34828 ft | 472 kts | 86° |
| 2026-04-23 12:14 | 23.83704 | 66.07877 | 34828 ft | 472 kts | 86° |
| 2026-04-23 12:14 | 23.83698 | 66.13833 | 34825 ft | 472 kts | 86° |
| 2026-04-23 12:15 | 23.83685 | 66.20995 | 34820 ft | 472 kts | 86° |
| 2026-04-23 12:15 | 23.83670 | 66.28161 | 34820 ft | 471 kts | 86° |
| 2026-04-23 12:16 | 23.83649 | 66.35326 | 34811 ft | 472 kts | 86° |
| 2026-04-23 12:16 | 23.83632 | 66.42491 | 34811 ft | 472 kts | 86° |
| 2026-04-23 12:17 | 23.83611 | 66.49667 | 34811 ft | 472 kts | 86° |
| 2026-04-23 12:17 | 23.83581 | 66.56841 | 34809 ft | 472 kts | 86° |
| 2026-04-23 12:18 | 23.83547 | 66.64019 | 34808 ft | 473 kts | 87° |
| 2026-04-23 12:18 | 23.83511 | 66.71215 | 34809 ft | 473 kts | 87° |
| 2026-04-23 12:19 | 23.83474 | 66.78408 | 34809 ft | 474 kts | 87° |
| 2026-04-23 12:19 | 23.83437 | 66.85560 | 34812 ft | 474 kts | 87° |
| 2026-04-23 12:20 | 23.83389 | 66.92763 | 34813 ft | 474 kts | 88° |
| 2026-04-23 12:20 | 23.83421 | 66.99968 | 34804 ft | 473 kts | 82° |
| 2026-04-23 12:21 | 23.84502 | 67.07029 | 34803 ft | 471 kts | 77° |
| 2026-04-23 12:21 | 23.85686 | 67.14075 | 34810 ft | 472 kts | 77° |
| 2026-04-23 12:22 | 23.86861 | 67.21141 | 34812 ft | 473 kts | 77° |
| 2026-04-23 12:22 | 23.88020 | 67.28220 | 34815 ft | 473 kts | 77° |
| 2026-04-23 12:23 | 23.89172 | 67.35256 | 34817 ft | 474 kts | 77° |
| 2026-04-23 12:23 | 23.90342 | 67.42344 | 34812 ft | 474 kts | 77° |
| 2026-04-23 12:24 | 23.91506 | 67.49437 | 34813 ft | 474 kts | 77° |
| 2026-04-23 12:24 | 23.92658 | 67.56532 | 34819 ft | 474 kts | 77° |
| 2026-04-23 12:25 | 23.93813 | 67.63634 | 34818 ft | 474 kts | 77° |
| 2026-04-23 12:25 | 23.94967 | 67.70730 | 34813 ft | 474 kts | 77° |
| 2026-04-23 12:26 | 23.96116 | 67.77838 | 34813 ft | 475 kts | 77° |
| 2026-04-23 12:26 | 23.97265 | 67.84956 | 34810 ft | 475 kts | 78° |
| 2026-04-23 12:27 | 23.98399 | 67.92070 | 34809 ft | 475 kts | 78° |
| 2026-04-23 12:27 | 23.99534 | 67.99187 | 34808 ft | 475 kts | 78° |
| 2026-04-23 12:28 | 24.00677 | 68.06303 | 34809 ft | 475 kts | 77° |
| 2026-04-23 12:28 | 24.01812 | 68.13383 | 34808 ft | 475 kts | 77° |
| 2026-04-23 12:29 | 24.02942 | 68.20505 | 34807 ft | 475 kts | 78° |
| 2026-04-23 12:29 | 24.04063 | 68.27641 | 34801 ft | 476 kts | 78° |
| 2026-04-23 12:30 | 24.05183 | 68.34778 | 34794 ft | 476 kts | 77° |
| 2026-04-23 12:30 | 24.06307 | 68.41925 | 34796 ft | 477 kts | 78° |
| 2026-04-23 12:31 | 24.07431 | 68.49075 | 34792 ft | 477 kts | 78° |
| 2026-04-23 12:31 | 24.08555 | 68.56225 | 34796 ft | 477 kts | 78° |
| 2026-04-23 12:32 | 24.09673 | 68.63389 | 34789 ft | 478 kts | 79° |
| 2026-04-23 12:32 | 24.10783 | 68.70566 | 34787 ft | 478 kts | 78° |
| 2026-04-23 12:33 | 24.11153 | 68.77819 | 34775 ft | 481 kts | 96° |
| 2026-04-23 12:33 | 24.09573 | 68.84939 | 34778 ft | 483 kts | 105° |
| 2026-04-23 12:34 | 24.07732 | 68.92017 | 34776 ft | 483 kts | 105° |
| 2026-04-23 12:34 | 24.05916 | 68.99056 | 34773 ft | 484 kts | 105° |
| 2026-04-23 12:35 | 24.04078 | 69.06143 | 34770 ft | 484 kts | 105° |
| 2026-04-23 12:35 | 24.03165 | 69.09647 | 34768 ft | 471 kts | 105° |
| 2026-04-23 12:35 | 24.02279 | 69.13043 | 34765 ft | 461 kts | 105° |
| 2026-04-23 12:36 | 24.00521 | 69.19749 | 34773 ft | 456 kts | 105° |
| 2026-04-23 12:36 | 23.98771 | 69.26432 | 34764 ft | 458 kts | 105° |
| 2026-04-23 12:37 | 23.97014 | 69.33120 | 34766 ft | 458 kts | 105° |
| 2026-04-23 12:37 | 23.95256 | 69.39814 | 34764 ft | 458 kts | 105° |
| 2026-04-23 12:38 | 23.93494 | 69.46498 | 34753 ft | 458 kts | 105° |
| 2026-04-23 12:38 | 23.91729 | 69.53189 | 34759 ft | 458 kts | 105° |
| 2026-04-23 12:39 | 23.89969 | 69.59871 | 34764 ft | 457 kts | 106° |
| 2026-04-23 12:39 | 23.88212 | 69.66499 | 34756 ft | 457 kts | 106° |
| 2026-04-23 12:40 | 23.86429 | 69.73200 | 34759 ft | 457 kts | 106° |
| 2026-04-23 12:40 | 23.84668 | 69.79821 | 34754 ft | 456 kts | 106° |
| 2026-04-23 12:41 | 23.82895 | 69.86480 | 34761 ft | 456 kts | 106° |
| 2026-04-23 12:41 | 23.81117 | 69.93139 | 34762 ft | 456 kts | 106° |
| 2026-04-23 12:42 | 23.79334 | 69.99777 | 34760 ft | 455 kts | 106° |
| 2026-04-23 12:42 | 23.77557 | 70.06421 | 34757 ft | 455 kts | 106° |
| 2026-04-23 12:43 | 23.75788 | 70.13061 | 34757 ft | 455 kts | 106° |
| 2026-04-23 12:43 | 23.74004 | 70.19693 | 34758 ft | 455 kts | 107° |
| 2026-04-23 12:44 | 23.72212 | 70.26315 | 34756 ft | 455 kts | 107° |
| 2026-04-23 12:44 | 23.70428 | 70.32902 | 34753 ft | 454 kts | 107° |
| 2026-04-23 12:45 | 23.68630 | 70.39559 | 34762 ft | 454 kts | 107° |
| 2026-04-23 12:45 | 23.66851 | 70.46116 | 34762 ft | 454 kts | 107° |
| 2026-04-23 12:46 | 23.65058 | 70.52710 | 34762 ft | 454 kts | 107° |
| 2026-04-23 12:46 | 23.63270 | 70.59301 | 34673 ft | 452 kts | 107° |
| 2026-04-23 12:47 | 23.62382 | 70.62566 | 34439 ft | 447 kts | 108° |
| 2026-04-23 12:47 | 23.61500 | 70.65797 | 34204 ft | 443 kts | 108° |
| 2026-04-23 12:47 | 23.60618 | 70.69020 | 33973 ft | 441 kts | 108° |
| 2026-04-23 12:47 | 23.59738 | 70.72223 | 33739 ft | 440 kts | 108° |
| 2026-04-23 12:48 | 23.58869 | 70.75403 | 33345 ft | 436 kts | 108° |
| 2026-04-23 12:48 | 23.58006 | 70.78563 | 32821 ft | 433 kts | 108° |
| 2026-04-23 12:48 | 23.57150 | 70.81696 | 32311 ft | 431 kts | 108° |
| 2026-04-23 12:48 | 23.56297 | 70.84819 | 31801 ft | 428 kts | 108° |
| 2026-04-23 12:49 | 23.55450 | 70.87922 | 31297 ft | 427 kts | 107° |
| 2026-04-23 12:49 | 23.54604 | 70.91013 | 30810 ft | 425 kts | 108° |
| 2026-04-23 12:49 | 23.53761 | 70.94090 | 30322 ft | 423 kts | 108° |
| 2026-04-23 12:49 | 23.52920 | 70.97155 | 29854 ft | 421 kts | 108° |
| 2026-04-23 12:50 | 23.52076 | 71.00202 | 29353 ft | 418 kts | 109° |
| 2026-04-23 12:50 | 23.51148 | 71.03189 | 28902 ft | 414 kts | 111° |
| 2026-04-23 12:50 | 23.50138 | 71.06113 | 28458 ft | 410 kts | 112° |
| 2026-04-23 12:50 | 23.49091 | 71.08983 | 28022 ft | 406 kts | 113° |
| 2026-04-23 12:51 | 23.48054 | 71.11785 | 27592 ft | 403 kts | 113° |
| 2026-04-23 12:51 | 23.47003 | 71.14643 | 27152 ft | 400 kts | 112° |
| 2026-04-23 12:51 | 23.46000 | 71.17417 | 26713 ft | 397 kts | 112° |
| 2026-04-23 12:51 | 23.45004 | 71.20219 | 26274 ft | 395 kts | 112° |
| 2026-04-23 12:52 | 23.44026 | 71.23004 | 25816 ft | 393 kts | 112° |
| 2026-04-23 12:52 | 23.43055 | 71.25785 | 25363 ft | 392 kts | 111° |
| 2026-04-23 12:52 | 23.42087 | 71.28551 | 24895 ft | 390 kts | 112° |
| 2026-04-23 12:52 | 23.41117 | 71.31313 | 24421 ft | 390 kts | 112° |
| 2026-04-23 12:53 | 23.40148 | 71.34062 | 23940 ft | 389 kts | 112° |
| 2026-04-23 12:53 | 23.39180 | 71.36812 | 23463 ft | 389 kts | 112° |
| 2026-04-23 12:53 | 23.38210 | 71.39559 | 22921 ft | 388 kts | 111° |
| 2026-04-23 12:53 | 23.37239 | 71.42294 | 22446 ft | 386 kts | 111° |
| 2026-04-23 12:54 | 23.36273 | 71.45014 | 21973 ft | 384 kts | 111° |
| 2026-04-23 12:54 | 23.35314 | 71.47716 | 21507 ft | 382 kts | 111° |
| 2026-04-23 12:54 | 23.34357 | 71.50412 | 21040 ft | 381 kts | 111° |
| 2026-04-23 12:54 | 23.33405 | 71.53089 | 20589 ft | 379 kts | 111° |
| 2026-04-23 12:55 | 23.32454 | 71.55764 | 20129 ft | 378 kts | 111° |
| 2026-04-23 12:55 | 23.31520 | 71.58397 | 19671 ft | 366 kts | 110° |
| 2026-04-23 12:55 | 23.30621 | 71.60937 | 19242 ft | 354 kts | 110° |
| 2026-04-23 12:55 | 23.29746 | 71.63403 | 18830 ft | 346 kts | 110° |
| 2026-04-23 12:56 | 23.28889 | 71.65812 | 18417 ft | 347 kts | 110° |
| 2026-04-23 12:56 | 23.28019 | 71.68259 | 18002 ft | 347 kts | 109° |
| 2026-04-23 12:56 | 23.27146 | 71.70707 | 17545 ft | 347 kts | 109° |
| 2026-04-23 12:56 | 23.26262 | 71.73179 | 17123 ft | 346 kts | 110° |
| 2026-04-23 12:57 | 23.25401 | 71.75579 | 16730 ft | 344 kts | 110° |
| 2026-04-23 12:57 | 23.24535 | 71.78002 | 16328 ft | 343 kts | 110° |
| 2026-04-23 12:57 | 23.23673 | 71.80421 | 15934 ft | 343 kts | 109° |
| 2026-04-23 12:57 | 23.22816 | 71.82834 | 15547 ft | 342 kts | 110° |
| 2026-04-23 12:58 | 23.21961 | 71.85241 | 15157 ft | 341 kts | 110° |
| 2026-04-23 12:58 | 23.21105 | 71.87644 | 14764 ft | 340 kts | 110° |
| 2026-04-23 12:58 | 23.20247 | 71.90040 | 14377 ft | 340 kts | 110° |
| 2026-04-23 12:58 | 23.19391 | 71.92433 | 14004 ft | 339 kts | 110° |
| 2026-04-23 12:59 | 23.18534 | 71.94822 | 13628 ft | 339 kts | 110° |
| 2026-04-23 12:59 | 23.17685 | 71.97184 | 13205 ft | 330 kts | 111° |
| 2026-04-23 12:59 | 23.16866 | 71.99463 | 12835 ft | 319 kts | 111° |
| 2026-04-23 12:59 | 23.16063 | 72.01702 | 12470 ft | 318 kts | 111° |
| 2026-04-23 13:00 | 23.15261 | 72.03939 | 12104 ft | 317 kts | 111° |
| 2026-04-23 13:00 | 23.14459 | 72.06174 | 11733 ft | 317 kts | 112° |
| 2026-04-23 13:00 | 23.13657 | 72.08402 | 11359 ft | 316 kts | 112° |
| 2026-04-23 13:00 | 23.12854 | 72.10627 | 10990 ft | 316 kts | 112° |
| 2026-04-23 13:01 | 23.12324 | 72.12098 | 10739 ft | 316 kts | 112° |
| 2026-04-23 13:01 | 23.11522 | 72.14329 | 10350 ft | 316 kts | 112° |
| 2026-04-23 13:01 | 23.10724 | 72.16552 | 9967 ft | 317 kts | 113° |
| 2026-04-23 13:01 | 23.09923 | 72.18778 | 9591 ft | 316 kts | 113° |
| 2026-04-23 13:02 | 23.09118 | 72.21005 | 9176 ft | 315 kts | 113° |
| 2026-04-23 13:02 | 23.08318 | 72.23220 | 8783 ft | 314 kts | 113° |
| 2026-04-23 13:02 | 23.07524 | 72.25418 | 8382 ft | 311 kts | 114° |
| 2026-04-23 13:02 | 23.06750 | 72.27565 | 8045 ft | 297 kts | 113° |
| 2026-04-23 13:03 | 23.06145 | 72.29671 | 7563 ft | 292 kts | 100° |
| 2026-04-23 13:03 | 23.06069 | 72.31844 | 7151 ft | 288 kts | 84° |
| 2026-04-23 13:03 | 23.06508 | 72.33942 | 6880 ft | 284 kts | 69° |
| 2026-04-23 13:03 | 23.07206 | 72.35939 | 6602 ft | 282 kts | 69° |
| 2026-04-23 13:04 | 23.07896 | 72.37931 | 6326 ft | 281 kts | 69° |
| 2026-04-23 13:04 | 23.08580 | 72.39915 | 6044 ft | 280 kts | 69° |
| 2026-04-23 13:04 | 23.09261 | 72.41895 | 5759 ft | 278 kts | 69° |
| 2026-04-23 13:04 | 23.09925 | 72.43825 | 5621 ft | 268 kts | 69° |
| 2026-04-23 13:05 | 23.10578 | 72.45717 | 5516 ft | 267 kts | 69° |
| 2026-04-23 13:05 | 23.11228 | 72.47598 | 5400 ft | 265 kts | 69° |
| 2026-04-23 13:05 | 23.11933 | 72.49445 | 5289 ft | 262 kts | 59° |
| 2026-04-23 13:05 | 23.13018 | 72.50974 | 5137 ft | 253 kts | 42° |
| 2026-04-23 13:06 | 23.15492 | 72.53647 | 4820 ft | 249 kts | 43° |
| 2026-04-23 13:06 | 23.16699 | 72.54960 | 4667 ft | 248 kts | 42° |
| 2026-04-23 13:06 | 23.17913 | 72.56282 | 4512 ft | 246 kts | 43° |
| 2026-04-23 13:07 | 23.19134 | 72.57612 | 4352 ft | 245 kts | 43° |
| 2026-04-23 13:07 | 23.20340 | 72.58925 | 4200 ft | 245 kts | 42° |
| 2026-04-23 13:07 | 23.21524 | 72.60216 | 4053 ft | 243 kts | 43° |
| 2026-04-23 13:07 | 23.22711 | 72.61514 | 3944 ft | 240 kts | 42° |
| 2026-04-23 13:08 | 23.23860 | 72.62770 | 3886 ft | 228 kts | 42° |
| 2026-04-23 13:08 | 23.24942 | 72.63955 | 3847 ft | 214 kts | 42° |
| 2026-04-23 13:08 | 23.25978 | 72.65087 | 3733 ft | 209 kts | 42° |
| 2026-04-23 13:08 | 23.26998 | 72.66200 | 3596 ft | 207 kts | 42° |
| 2026-04-23 13:09 | 23.27968 | 72.67370 | 3466 ft | 209 kts | 49° |
| 2026-04-23 13:09 | 23.28938 | 72.68523 | 3197 ft | 206 kts | 42° |
| 2026-04-23 13:09 | 23.29973 | 72.69586 | 3023 ft | 204 kts | 39° |
| 2026-04-23 13:09 | 23.31019 | 72.70651 | 3018 ft | 207 kts | 40° |
| 2026-04-23 13:10 | 23.32081 | 72.71718 | 3019 ft | 208 kts | 40° |
| 2026-04-23 13:10 | 23.33071 | 72.72857 | 3008 ft | 209 kts | 58° |
| 2026-04-23 13:10 | 23.33387 | 72.74382 | 3014 ft | 211 kts | 98° |
| 2026-04-23 13:10 | 23.32840 | 72.75827 | 3025 ft | 206 kts | 129° |
| 2026-04-23 13:11 | 23.31922 | 72.77031 | 3023 ft | 207 kts | 135° |
| 2026-04-23 13:11 | 23.30951 | 72.78183 | 3022 ft | 207 kts | 135° |
| 2026-04-23 13:11 | 23.29891 | 72.79212 | 3009 ft | 202 kts | 158° |
| 2026-04-23 13:11 | 23.28574 | 72.79516 | 3022 ft | 196 kts | 181° |
| 2026-04-23 13:12 | 23.27228 | 72.79414 | 3018 ft | 194 kts | 193° |
| 2026-04-23 13:12 | 23.25908 | 72.79150 | 3017 ft | 192 kts | 195° |
| 2026-04-23 13:12 | 23.24603 | 72.78866 | 3019 ft | 191 kts | 195° |
| 2026-04-23 13:12 | 23.23295 | 72.78585 | 3016 ft | 193 kts | 196° |
| 2026-04-23 13:13 | 23.21987 | 72.78274 | 3016 ft | 191 kts | 203° |
| 2026-04-23 13:13 | 23.20878 | 72.77534 | 3017 ft | 186 kts | 226° |
| 2026-04-23 13:13 | 23.19959 | 72.76549 | 2971 ft | 185 kts | 227° |
| 2026-04-23 13:13 | 23.19046 | 72.75567 | 2797 ft | 184 kts | 228° |
| 2026-04-23 13:14 | 23.18138 | 72.74594 | 2587 ft | 184 kts | 228° |
| 2026-04-23 13:14 | 23.17225 | 72.73615 | 2362 ft | 184 kts | 227° |
| 2026-04-23 13:14 | 23.16319 | 72.72645 | 2132 ft | 182 kts | 227° |
| 2026-04-23 13:14 | 23.15416 | 72.71678 | 1898 ft | 180 kts | 228° |
| 2026-04-23 13:15 | 23.14554 | 72.70756 | 1681 ft | 167 kts | 227° |
| 2026-04-23 13:15 | 23.13760 | 72.69907 | 1500 ft | 152 kts | 226° |
| 2026-04-23 13:15 | 23.13026 | 72.69121 | 1298 ft | 146 kts | 227° |
| 2026-04-23 13:15 | 23.12315 | 72.68359 | 1131 ft | 141 kts | 227° |
| 2026-04-23 13:16 | 23.11615 | 72.67610 | 966 ft | 141 kts | 228° |
| 2026-04-23 13:16 | 23.10915 | 72.66861 | 800 ft | 141 kts | 226° |
| 2026-04-23 13:16 | 23.10215 | 72.66112 | 616 ft | 141 kts | 226° |
| 2026-04-23 13:16 | 23.09508 | 72.65356 | 421 ft | 143 kts | 225° |
| 2026-04-23 13:17 | 23.08802 | 72.64610 | 247 ft | 141 kts | 225° |
| 2026-04-23 13:17 | 23.08135 | 72.63887 | 196 ft | 119 kts | 225° |
| 2026-04-23 13:17 | 23.07676 | 72.63395 | 195 ft | 65 kts | 225° |
| 2026-04-23 13:17 | 23.07497 | 72.63170 | 200 ft | 28 kts | 243° |
| 2026-04-23 13:18 | 23.07436 | 72.62995 | 191 ft | 20 kts | 252° |
| 2026-04-23 13:18 | 23.07450 | 72.62888 | 198 ft | 15 kts | 309° |
| 2026-04-23 13:18 | 23.07525 | 72.62802 | 190 ft | 16 kts | 314° |
| 2026-04-23 13:18 | 23.07496 | 72.62706 | 188 ft | 12 kts | 223° |
| 2026-04-23 13:19 | 23.07485 | 72.62652 | 189 ft | 8 kts | 316° |
| 2026-04-23 13:19 | 23.07519 | 72.62618 | 190 ft | 2 kts | 317° |
| 2026-04-23 13:19 | 23.07521 | 72.62616 | 186 ft | 0 kts | 317° |